createdAt,value
2019-06-26T00:00:48.332Z,16.93
2019-06-26T00:03:18.065Z,21.45
2019-06-26T00:05:47.701Z,16.87
2019-06-26T00:08:17.303Z,23.55
2019-06-26T00:10:46.919Z,19.48
2019-06-26T00:13:25.715Z,19.17
2019-06-26T00:15:47.905Z,17.60
2019-06-26T00:18:17.603Z,16.30
2019-06-26T00:20:47.229Z,14.47
2019-06-26T00:23:16.828Z,20.00
2019-06-26T00:25:46.461Z,19.32
2019-06-26T00:28:16.095Z,20.60
2019-06-26T00:30:45.700Z,19.17
2019-06-26T00:33:15.328Z,19.67
2019-06-26T00:35:44.930Z,14.80
2019-06-26T00:38:14.565Z,18.12
2019-06-26T00:40:44.201Z,16.37
2019-06-26T00:43:13.802Z,18.20
2019-06-26T00:45:43.492Z,21.87
2019-06-26T00:48:13.092Z,17.42
2019-06-26T00:50:42.820Z,22.97
2019-06-26T00:53:12.496Z,22.93
2019-06-26T00:55:42.240Z,22.32
2019-06-26T00:58:11.915Z,18.75
2019-06-26T01:00:53.379Z,20.17
2019-06-26T01:03:22.982Z,20.30
2019-06-26T01:05:52.613Z,19.70
2019-06-26T01:08:22.222Z,15.95
2019-06-26T01:10:51.931Z,19.25
2019-06-26T01:13:21.524Z,15.75
2019-06-26T01:15:51.148Z,17.05
2019-06-26T01:18:20.777Z,11.83
2019-06-26T01:20:50.469Z,18.23
2019-06-26T01:23:20.098Z,18.32
2019-06-26T01:25:49.708Z,15.80
2019-06-26T01:28:19.416Z,17.75
2019-06-26T01:30:49.035Z,13.37
2019-06-26T01:33:18.776Z,13.68
2019-06-26T01:35:48.415Z,22.70
2019-06-26T01:38:18.037Z,19.95
2019-06-26T01:40:47.679Z,17.55
2019-06-26T01:43:17.359Z,13.03
2019-06-26T01:45:46.981Z,13.60
2019-06-26T01:48:16.680Z,13.30
2019-06-26T01:50:46.309Z,14.53
2019-06-26T01:53:15.914Z,15.10
2019-06-26T01:55:45.564Z,17.10
2019-06-26T01:58:15.161Z,16.02
2019-06-26T02:00:44.789Z,22.50
2019-06-26T02:03:14.393Z,14.13
2019-06-26T02:05:44.075Z,15.93
2019-06-26T02:08:13.704Z,17.45
2019-06-26T02:10:44.344Z,14.18
2019-06-26T02:13:14.003Z,13.50
2019-06-26T02:15:43.604Z,14.68
2019-06-26T02:18:30.709Z,17.77
2019-06-26T02:21:00.309Z,16.60
2019-06-26T02:23:30.023Z,17.40
2019-06-26T02:25:59.688Z,17.23
2019-06-26T02:28:29.299Z,19.52
2019-06-26T02:30:59.109Z,18.57
2019-06-26T02:33:28.769Z,21.10
2019-06-26T02:35:58.385Z,18.75
2019-06-26T02:38:28.057Z,21.23
2019-06-26T02:40:57.831Z,15.97
2019-06-26T02:43:27.432Z,13.50
2019-06-26T02:45:57.062Z,16.97
2019-06-26T02:48:26.682Z,17.52
2019-06-26T02:50:56.301Z,29.77
2019-06-26T02:53:26.126Z,28.42
2019-06-26T02:55:55.753Z,21.70
2019-06-26T02:58:25.697Z,26.90
2019-06-26T03:00:55.326Z,22.13
2019-06-26T03:03:25.275Z,32.38
2019-06-26T03:05:54.978Z,26.93
2019-06-26T03:08:24.655Z,23.07
2019-06-26T03:10:54.369Z,25.50
2019-06-26T03:13:24.180Z,18.40
2019-06-26T03:15:54.031Z,14.83
2019-06-26T03:18:23.668Z,15.90
2019-06-26T03:20:57.423Z,22.42
2019-06-26T03:23:27.175Z,24.53
2019-06-26T03:25:56.878Z,23.20
2019-06-26T03:28:26.580Z,22.98
2019-06-26T03:30:56.207Z,26.50
2019-06-26T03:33:25.842Z,21.07
2019-06-26T03:35:55.540Z,21.68
2019-06-26T03:38:25.146Z,18.25
2019-06-26T03:40:54.768Z,18.37
2019-06-26T03:43:24.406Z,16.10
2019-06-26T03:45:54.007Z,12.93
2019-06-26T03:48:23.714Z,21.12
2019-06-26T03:50:53.321Z,16.48
2019-06-26T03:53:22.963Z,17.82
2019-06-26T03:55:52.564Z,15.53
2019-06-26T03:58:22.205Z,19.12
2019-06-26T04:00:51.884Z,22.60
2019-06-26T04:03:21.500Z,23.15
2019-06-26T04:05:51.207Z,26.60
2019-06-26T04:08:20.838Z,17.73
2019-06-26T04:10:50.450Z,20.23
2019-06-26T04:13:20.081Z,28.07
2019-06-26T04:15:51.040Z,15.28
2019-06-26T04:18:21.292Z,19.42
2019-06-26T04:20:50.925Z,17.35
2019-06-26T04:23:20.621Z,21.35
2019-06-26T04:25:50.223Z,20.30
2019-06-26T04:28:19.891Z,22.00
2019-06-26T04:30:49.550Z,21.27
2019-06-26T04:33:19.251Z,25.80
2019-06-26T04:35:48.859Z,21.97
2019-06-26T04:38:18.568Z,19.40
2019-06-26T04:40:48.207Z,22.60
2019-06-26T04:43:17.890Z,25.90
2019-06-26T04:45:57.795Z,26.68
2019-06-26T04:48:19.048Z,29.20
2019-06-26T04:50:48.679Z,24.32
2019-06-26T04:53:18.303Z,29.00
2019-06-26T04:55:47.939Z,24.90
2019-06-26T04:58:17.549Z,22.98
2019-06-26T05:00:47.179Z,22.35
2019-06-26T05:03:16.874Z,21.07
2019-06-26T05:05:46.663Z,18.98
2019-06-26T05:08:16.300Z,18.23
2019-06-26T05:10:45.934Z,18.05
2019-06-26T05:13:15.543Z,17.57
2019-06-26T05:15:45.182Z,22.77
2019-06-26T05:18:14.902Z,19.15
2019-06-26T05:20:44.536Z,21.02
2019-06-26T05:23:14.137Z,19.60
2019-06-26T05:25:44.237Z,18.48
2019-06-26T05:28:13.837Z,18.05
2019-06-26T05:30:43.480Z,21.45
2019-06-26T05:33:13.181Z,17.50
2019-06-26T05:35:42.816Z,17.87
2019-06-26T05:38:13.549Z,14.47
2019-06-26T05:40:43.205Z,17.57
2019-06-26T05:43:12.849Z,17.67
2019-06-26T05:45:42.449Z,17.12
2019-06-26T05:48:12.077Z,24.32
2019-06-26T05:50:41.679Z,21.52
2019-06-26T05:53:11.331Z,16.10
2019-06-26T05:55:41.412Z,20.45
2019-06-26T05:58:11.086Z,18.15
2019-06-26T06:00:40.756Z,16.65
2019-06-26T06:03:10.405Z,20.08
2019-06-26T06:05:40.037Z,16.52
2019-06-26T06:08:09.671Z,16.52
2019-06-26T06:10:39.350Z,18.80
2019-06-26T06:13:09.048Z,16.85
2019-06-26T06:15:38.657Z,18.67
2019-06-26T06:18:08.284Z,19.90
2019-06-26T06:20:41.353Z,15.55
2019-06-26T06:23:10.954Z,21.95
2019-06-26T06:25:40.589Z,15.32
2019-06-26T06:28:10.243Z,13.68
2019-06-26T06:30:39.873Z,17.20
2019-06-26T06:33:09.570Z,19.87
2019-06-26T06:35:39.196Z,14.98
2019-06-26T06:38:08.795Z,18.45
2019-06-26T06:40:38.517Z,17.10
2019-06-26T06:43:08.117Z,18.90
2019-06-26T06:45:37.808Z,16.15
2019-06-26T06:48:07.493Z,16.87
2019-06-26T06:50:37.181Z,17.80
2019-06-26T06:53:06.777Z,20.20
2019-06-26T06:55:36.417Z,15.78
2019-06-26T06:58:06.142Z,18.42
2019-06-26T07:00:35.881Z,12.28
2019-06-26T07:03:06.147Z,15.13
2019-06-26T07:05:35.766Z,14.78
2019-06-26T07:08:05.444Z,14.98
2019-06-26T07:10:35.080Z,13.25
2019-06-26T07:13:04.770Z,18.57
2019-06-26T07:15:34.469Z,17.62
2019-06-26T07:18:04.071Z,16.87
2019-06-26T07:20:33.772Z,16.60
2019-06-26T07:23:03.406Z,16.75
2019-06-26T07:25:33.103Z,21.93
2019-06-26T07:28:02.747Z,16.17
2019-06-26T07:30:32.402Z,19.55
2019-06-26T07:33:02.835Z,14.98
2019-06-26T07:35:32.575Z,16.40
2019-06-26T07:38:02.263Z,14.18
2019-06-26T07:40:31.920Z,16.90
2019-06-26T07:43:01.574Z,14.47
2019-06-26T07:45:31.150Z,15.03
2019-06-26T07:48:00.777Z,18.55
2019-06-26T07:50:32.565Z,16.60
2019-06-26T07:53:01.731Z,16.10
2019-06-26T07:55:31.367Z,18.15
2019-06-26T07:58:00.972Z,12.78
2019-06-26T08:00:31.859Z,14.80
2019-06-26T08:03:04.340Z,14.35
2019-06-26T08:05:32.996Z,12.37
2019-06-26T08:08:02.589Z,12.25
2019-06-26T08:10:32.214Z,11.57
2019-06-26T08:13:01.926Z,10.75
2019-06-26T08:15:31.528Z,11.95
2019-06-26T08:18:01.674Z,11.38
2019-06-26T08:20:31.361Z,10.05
2019-06-26T08:23:00.960Z,10.35
2019-06-26T08:25:30.595Z,13.80
2019-06-26T08:28:00.229Z,13.25
2019-06-26T08:30:29.898Z,9.48
2019-06-26T08:32:59.496Z,12.40
2019-06-26T08:35:29.139Z,13.35
2019-06-26T08:38:09.849Z,10.28
2019-06-26T08:40:30.052Z,9.95
2019-06-26T08:42:59.686Z,14.40
2019-06-26T08:45:29.359Z,11.08
2019-06-26T08:48:13.379Z,13.28
2019-06-26T08:50:30.324Z,10.65
2019-06-26T08:53:00.098Z,9.55
2019-06-26T08:55:29.688Z,10.20
2019-06-26T08:57:59.315Z,13.05
2019-06-26T09:00:28.970Z,15.13
2019-06-26T09:02:58.685Z,13.18
2019-06-26T09:05:28.324Z,11.50
2019-06-26T09:07:58.172Z,12.73
2019-06-26T09:10:27.773Z,14.80
2019-06-26T09:12:57.401Z,10.65
2019-06-26T09:15:26.999Z,10.72
2019-06-26T09:17:56.627Z,12.20
2019-06-26T09:20:40.610Z,18.98
2019-06-26T09:23:10.440Z,13.53
2019-06-26T09:25:40.038Z,12.05
2019-06-26T09:28:09.766Z,13.90
2019-06-26T09:30:39.368Z,14.80
2019-06-26T09:33:09.019Z,11.38
2019-06-26T09:35:38.597Z,13.90
2019-06-26T09:38:08.224Z,14.38
2019-06-26T09:40:37.824Z,9.10
2019-06-26T09:43:07.459Z,11.80
2019-06-26T09:45:37.248Z,12.60
2019-06-26T09:48:06.980Z,10.90
2019-06-26T09:50:36.583Z,13.03
2019-06-26T09:53:06.248Z,15.65
2019-06-26T09:55:36.014Z,11.08
2019-06-26T09:58:05.684Z,12.82
2019-06-26T10:00:35.623Z,11.63
2019-06-26T10:03:06.000Z,14.33
2019-06-26T10:05:35.698Z,10.30
2019-06-26T10:08:05.417Z,11.18
2019-06-26T10:10:35.000Z,12.30
2019-06-26T10:13:04.694Z,9.93
2019-06-26T10:15:34.289Z,14.78
2019-06-26T10:18:03.999Z,11.85
2019-06-26T10:20:33.627Z,11.38
2019-06-26T10:23:03.212Z,16.23
2019-06-26T10:25:32.916Z,15.18
2019-06-26T10:28:02.625Z,16.50
2019-06-26T10:30:32.202Z,12.70
2019-06-26T10:33:02.269Z,14.87
2019-06-26T10:35:31.904Z,13.40
2019-06-26T10:38:01.896Z,15.30
2019-06-26T10:40:31.505Z,13.85
2019-06-26T10:43:01.159Z,16.62
2019-06-26T10:45:30.841Z,12.05
2019-06-26T10:48:00.604Z,11.57
2019-06-26T10:50:30.196Z,10.82
2019-06-26T10:52:59.823Z,17.85
2019-06-26T10:55:29.420Z,11.35
2019-06-26T10:57:59.047Z,11.03
2019-06-26T11:00:29.082Z,10.98
2019-06-26T11:02:58.839Z,10.98
2019-06-26T11:05:28.585Z,12.55
2019-06-26T11:07:58.208Z,8.35
2019-06-26T11:10:27.974Z,11.33
2019-06-26T11:12:57.594Z,8.00
2019-06-26T11:15:27.286Z,9.43
2019-06-26T11:17:56.930Z,10.08
2019-06-26T11:20:26.736Z,11.45
2019-06-26T11:22:56.344Z,13.48
2019-06-26T11:25:26.109Z,14.75
2019-06-26T11:27:55.705Z,13.28
2019-06-26T11:30:25.839Z,10.53
2019-06-26T11:32:55.448Z,11.55
2019-06-26T11:35:25.066Z,17.87
2019-06-26T11:37:54.732Z,14.50
2019-06-26T11:40:24.571Z,12.78
2019-06-26T11:42:54.254Z,11.73
2019-06-26T11:45:24.010Z,12.60
2019-06-26T11:47:53.617Z,18.90
2019-06-26T11:50:23.858Z,12.37
2019-06-26T11:52:53.561Z,12.63
2019-06-26T11:55:23.368Z,12.28
2019-06-26T11:57:53.089Z,14.25
2019-06-26T12:00:24.706Z,10.95
2019-06-26T12:02:54.478Z,16.75
2019-06-26T12:05:24.505Z,17.82
2019-06-26T12:07:54.204Z,14.93
2019-06-26T12:10:24.177Z,12.40
2019-06-26T12:12:53.771Z,11.20
2019-06-26T12:15:24.412Z,13.55
2019-06-26T12:17:54.042Z,14.60
2019-06-26T12:20:23.803Z,15.93
2019-06-26T12:22:53.943Z,16.10
2019-06-26T12:25:23.671Z,15.40
2019-06-26T12:27:53.269Z,11.22
2019-06-26T12:30:23.741Z,13.30
2019-06-26T12:33:03.019Z,13.10
2019-06-26T12:35:24.743Z,11.18
2019-06-26T12:37:54.434Z,15.15
2019-06-26T12:40:24.095Z,13.55
2019-06-26T12:42:55.685Z,13.05
2019-06-26T12:45:25.217Z,13.35
2019-06-26T12:47:54.852Z,12.35
2019-06-26T12:50:35.308Z,11.90
2019-06-26T12:52:56.412Z,12.15
2019-06-26T12:55:26.034Z,13.38
2019-06-26T12:58:11.840Z,13.05
2019-06-26T13:00:27.228Z,12.15
2019-06-26T13:02:56.831Z,16.60
2019-06-26T13:05:26.462Z,14.00
2019-06-26T13:07:56.060Z,15.15
2019-06-26T13:10:25.696Z,11.43
2019-06-26T13:12:55.451Z,11.57
2019-06-26T13:15:25.117Z,11.03
2019-06-26T13:17:54.745Z,13.68
2019-06-26T13:20:24.415Z,11.50
2019-06-26T13:22:54.028Z,13.85
2019-06-26T13:25:23.700Z,16.67
2019-06-26T13:27:53.410Z,13.80
2019-06-26T13:30:30.314Z,11.53
2019-06-26T13:32:59.976Z,20.60
2019-06-26T13:35:29.643Z,16.55
2019-06-26T13:37:59.271Z,14.38
2019-06-26T13:40:28.941Z,15.40
2019-06-26T13:42:58.570Z,16.37
2019-06-26T13:45:28.242Z,17.25
2019-06-26T13:47:57.947Z,10.58
2019-06-26T13:50:27.680Z,12.58
2019-06-26T13:52:57.302Z,11.88
2019-06-26T13:55:26.897Z,14.23
2019-06-26T13:57:56.500Z,11.88
2019-06-26T14:00:26.293Z,11.57
2019-06-26T14:02:55.922Z,13.62
2019-06-26T14:05:29.259Z,19.37
2019-06-26T14:07:56.846Z,16.85
2019-06-26T14:10:26.473Z,13.78
2019-06-26T14:12:56.064Z,11.38
2019-06-26T14:15:26.107Z,12.80
2019-06-26T14:17:55.733Z,13.25
2019-06-26T14:20:25.456Z,12.00
2019-06-26T14:22:55.065Z,15.20
2019-06-26T14:25:24.658Z,12.15
2019-06-26T14:27:54.318Z,14.95
2019-06-26T14:30:27.681Z,13.15
2019-06-26T14:32:55.304Z,14.23
2019-06-26T14:35:24.903Z,14.73
2019-06-26T14:37:54.529Z,15.25
2019-06-26T14:40:24.190Z,15.93
2019-06-26T14:42:53.753Z,12.88
2019-06-26T14:45:23.458Z,14.18
2019-06-26T14:47:53.048Z,15.40
2019-06-26T14:50:23.288Z,11.53
2019-06-26T14:52:52.921Z,17.82
2019-06-26T14:55:22.685Z,12.15
2019-06-26T14:57:52.301Z,16.23
2019-06-26T15:00:22.214Z,13.78
2019-06-26T15:02:51.813Z,13.72
2019-06-26T15:05:21.511Z,11.57
2019-06-26T15:07:51.146Z,18.75
2019-06-26T15:10:21.388Z,15.95
2019-06-26T15:12:50.989Z,14.58
2019-06-26T15:15:20.759Z,21.90
2019-06-26T15:17:50.455Z,18.35
2019-06-26T15:20:20.402Z,15.18
2019-06-26T15:22:50.093Z,16.80
2019-06-26T15:25:20.220Z,15.10
2019-06-26T15:27:49.959Z,15.13
2019-06-26T15:30:21.302Z,24.47
2019-06-26T15:32:51.009Z,11.57
2019-06-26T15:35:20.609Z,12.53
2019-06-26T15:37:50.235Z,13.60
2019-06-26T15:40:20.171Z,15.08
2019-06-26T15:42:49.839Z,13.13
2019-06-26T15:45:20.784Z,17.67
2019-06-26T15:47:50.674Z,13.20
2019-06-26T15:50:20.808Z,14.40
2019-06-26T15:52:50.441Z,15.78
2019-06-26T15:55:20.070Z,13.10
2019-06-26T15:57:49.760Z,12.82
2019-06-26T16:00:19.772Z,15.53
2019-06-26T16:02:49.401Z,16.37
2019-06-26T16:05:19.069Z,13.43
2019-06-26T16:07:48.700Z,15.05
2019-06-26T16:10:19.116Z,17.95
2019-06-26T16:12:48.717Z,14.13
2019-06-26T16:15:18.766Z,15.85
2019-06-26T16:17:55.688Z,14.07
2019-06-26T16:20:25.288Z,13.95
2019-06-26T16:22:54.919Z,12.18
2019-06-26T16:25:24.518Z,14.98
2019-06-26T16:28:04.614Z,15.85
2019-06-26T16:30:26.080Z,13.72
2019-06-26T16:32:56.953Z,13.08
2019-06-26T16:35:26.776Z,13.60
2019-06-26T16:37:56.375Z,15.68
2019-06-26T16:40:26.008Z,12.07
2019-06-26T16:42:55.669Z,19.15
2019-06-26T16:45:25.391Z,13.38
2019-06-26T16:47:54.976Z,16.42
2019-06-26T16:50:24.611Z,18.37
2019-06-26T16:52:54.209Z,16.67
2019-06-26T16:55:23.831Z,12.50
2019-06-26T16:57:53.469Z,14.50
2019-06-26T17:00:23.229Z,11.75
2019-06-26T17:02:52.848Z,12.20
2019-06-26T17:05:22.514Z,16.12
2019-06-26T17:07:52.184Z,17.23
2019-06-26T17:10:22.135Z,18.95
2019-06-26T17:12:51.824Z,13.55
2019-06-26T17:15:21.713Z,15.43
2019-06-26T17:17:51.297Z,12.68
2019-06-26T17:20:21.128Z,19.87
2019-06-26T17:23:04.627Z,13.62
2019-06-26T17:25:22.088Z,19.48
2019-06-26T17:27:51.708Z,17.48
2019-06-26T17:30:21.549Z,13.38
2019-06-26T17:32:51.511Z,12.30
2019-06-26T17:35:21.185Z,12.78
2019-06-26T17:37:50.821Z,15.58
2019-06-26T17:40:21.075Z,15.63
2019-06-26T17:42:50.666Z,12.95
2019-06-26T17:45:20.506Z,14.00
2019-06-26T17:47:50.111Z,12.58
2019-06-26T17:50:20.045Z,15.53
2019-06-26T17:52:49.930Z,13.68
2019-06-26T17:55:19.777Z,12.82
2019-06-26T17:57:49.380Z,13.70
2019-06-26T18:00:23.590Z,14.90
2019-06-26T18:02:53.207Z,15.35
2019-06-26T18:05:22.891Z,16.23
2019-06-26T18:07:52.531Z,16.50
2019-06-26T18:10:22.157Z,12.50
2019-06-26T18:12:51.786Z,18.67
2019-06-26T18:15:21.390Z,28.70
2019-06-26T18:17:51.023Z,21.40
2019-06-26T18:20:20.785Z,16.27
2019-06-26T18:23:05.961Z,20.68
2019-06-26T18:25:21.813Z,18.05
2019-06-26T18:27:51.482Z,22.85
2019-06-26T18:30:22.810Z,19.52
2019-06-26T18:32:52.633Z,19.00
2019-06-26T18:35:23.935Z,18.50
2019-06-26T18:37:53.613Z,14.68
2019-06-26T18:40:23.411Z,17.42
2019-06-26T18:42:53.007Z,14.05
2019-06-26T18:45:22.778Z,20.25
2019-06-26T18:47:52.372Z,15.60
2019-06-26T18:50:22.000Z,20.77
2019-06-26T18:52:51.670Z,28.32
2019-06-26T18:55:21.302Z,16.55
2019-06-26T18:57:51.000Z,19.07
2019-06-26T19:00:21.430Z,15.05
2019-06-26T19:02:51.041Z,18.27
2019-06-26T19:05:20.683Z,19.62
2019-06-26T19:07:50.280Z,30.20
2019-06-26T19:10:20.215Z,16.42
2019-06-26T19:12:49.820Z,17.27
2019-06-26T19:15:19.897Z,20.62
2019-06-26T19:17:49.489Z,18.70
2019-06-26T19:20:20.121Z,25.35
2019-06-26T19:22:49.786Z,25.20
2019-06-26T19:25:19.550Z,21.45
2019-06-26T19:27:49.154Z,17.25
2019-06-26T19:30:19.293Z,23.10
2019-06-26T19:32:48.892Z,26.68
2019-06-26T19:35:19.736Z,21.80
2019-06-26T19:37:49.975Z,19.73
2019-06-26T19:40:23.632Z,18.98
2019-06-26T19:42:51.292Z,17.07
2019-06-26T19:45:21.620Z,23.67
2019-06-26T19:47:51.226Z,22.45
2019-06-26T19:50:23.410Z,17.57
2019-06-26T19:52:52.353Z,26.95
2019-06-26T19:55:21.951Z,28.02
2019-06-26T19:57:51.575Z,25.25
2019-06-26T20:00:22.740Z,22.30
2019-06-26T20:02:52.337Z,21.30
2019-06-26T20:05:21.924Z,19.10
2019-06-26T20:07:51.555Z,21.85
2019-06-26T20:10:22.055Z,22.02
2019-06-26T20:12:51.781Z,21.85
2019-06-26T20:15:21.382Z,24.05
2019-06-26T20:17:51.008Z,22.48
2019-06-26T20:20:20.792Z,27.42
2019-06-26T20:22:50.457Z,21.33
2019-06-26T20:25:20.636Z,17.40
2019-06-26T20:27:56.690Z,20.25
2019-06-26T20:30:26.424Z,21.17
2019-06-26T20:32:56.057Z,23.10
2019-06-26T20:35:25.729Z,23.90
2019-06-26T20:37:55.371Z,26.68
2019-06-26T20:40:24.953Z,21.33
2019-06-26T20:42:54.651Z,29.77
2019-06-26T20:45:24.405Z,26.68
2019-06-26T20:47:54.041Z,23.32
2019-06-26T20:50:23.643Z,24.37
2019-06-26T20:52:53.272Z,21.00
2019-06-26T20:55:22.896Z,21.23
2019-06-26T20:57:52.528Z,21.00
2019-06-26T21:00:22.782Z,24.75
2019-06-26T21:02:54.610Z,26.65
2019-06-26T21:05:24.206Z,27.22
2019-06-26T21:07:53.839Z,29.25
2019-06-26T21:10:23.514Z,25.35
2019-06-26T21:12:53.138Z,25.65
2019-06-26T21:15:22.815Z,25.15
2019-06-26T21:17:52.448Z,25.68
2019-06-26T21:20:22.050Z,27.75
2019-06-26T21:22:51.711Z,22.02
2019-06-26T21:25:22.924Z,22.70
2019-06-26T21:27:52.554Z,26.93
2019-06-26T21:30:22.798Z,27.22
2019-06-26T21:32:52.664Z,27.20
2019-06-26T21:35:22.292Z,23.65
2019-06-26T21:37:52.193Z,23.57
2019-06-26T21:40:21.796Z,29.82
2019-06-26T21:42:51.436Z,24.12
2019-06-26T21:45:22.087Z,25.25
2019-06-26T21:47:51.693Z,23.45
2019-06-26T21:50:21.314Z,23.38
2019-06-26T21:52:51.353Z,20.70
2019-06-26T21:55:33.896Z,24.52
2019-06-26T21:57:52.332Z,27.00
2019-06-26T22:00:23.525Z,24.45
2019-06-26T22:02:53.125Z,23.60
2019-06-26T22:05:24.340Z,19.57
2019-06-26T22:07:53.969Z,23.40
2019-06-26T22:10:23.711Z,24.55
2019-06-26T22:12:53.484Z,30.12
2019-06-26T22:15:23.187Z,24.37
2019-06-26T22:17:52.813Z,23.60
2019-06-26T22:20:22.621Z,27.60
2019-06-26T22:22:52.252Z,25.72
2019-06-26T22:25:22.091Z,27.20
2019-06-26T22:27:51.721Z,20.80
2019-06-26T22:30:21.730Z,20.88
2019-06-26T22:32:51.357Z,23.30
2019-06-26T22:35:21.027Z,25.15
2019-06-26T22:37:50.732Z,20.02
2019-06-26T22:40:20.473Z,22.13
2019-06-26T22:42:50.173Z,26.77
2019-06-26T22:45:19.914Z,31.35
2019-06-26T22:47:49.544Z,23.67
2019-06-26T22:50:19.451Z,27.10
2019-06-26T22:52:49.161Z,35.48
2019-06-26T22:55:18.913Z,24.18
2019-06-26T22:57:48.551Z,28.75
2019-06-26T23:00:20.039Z,21.93
2019-06-26T23:02:49.679Z,24.50
2019-06-26T23:05:19.318Z,30.82
2019-06-26T23:07:48.927Z,28.23
2019-06-26T23:10:19.614Z,25.40
2019-06-26T23:12:49.320Z,24.20
2019-06-26T23:15:19.170Z,27.22
2019-06-26T23:17:48.823Z,22.87
2019-06-26T23:20:18.733Z,31.25
2019-06-26T23:22:48.342Z,26.25
2019-06-26T23:25:17.977Z,25.10
2019-06-26T23:27:47.689Z,27.77
2019-06-26T23:30:20.886Z,25.05
2019-06-26T23:32:50.527Z,24.35
2019-06-26T23:35:20.159Z,24.37
2019-06-26T23:37:49.862Z,21.75
2019-06-26T23:40:19.680Z,25.00
2019-06-26T23:42:49.284Z,24.92
2019-06-26T23:45:19.323Z,26.23
2019-06-26T23:47:48.949Z,26.37
2019-06-26T23:50:19.473Z,25.10
2019-06-26T23:52:49.076Z,27.27
2019-06-26T23:55:18.905Z,25.88
2019-06-26T23:57:58.513Z,30.35
